sensor_id;sensor_type;location;lat;lon;timestamp;P1;durP1;ratioP1;P2;durP2;ratioP2
15331;SDS011;7766;51.534;6.722;2023-05-10T00:00:21;9.23;;;7.40;;
15331;SDS011;7766;51.534;6.722;2023-05-10T00:01:23;10.57;;;7.03;;
15331;SDS011;7766;51.534;6.722;2023-05-10T00:02:25;13.07;;;8.17;;
15331;SDS011;7766;51.534;6.722;2023-05-10T00:03:26;10.90;;;7.70;;
15331;SDS011;7766;51.534;6.722;2023-05-10T00:04:28;10.13;;;7.20;;
15331;SDS011;7766;51.534;6.722;2023-05-10T00:05:29;12.63;;;7.40;;
15331;SDS011;7766;51.534;6.722;2023-05-10T00:06:31;12.50;;;8.83;;
15331;SDS011;7766;51.534;6.722;2023-05-10T00:07:35;10.10;;;7.33;;
15331;SDS011;7766;51.534;6.722;2023-05-10T00:08:37;10.23;;;7.57;;
15331;SDS011;7766;51.534;6.722;2023-05-10T00:09:38;12.23;;;8.03;;
15331;SDS011;7766;51.534;6.722;2023-05-10T00:10:40;14.00;;;9.13;;
15331;SDS011;7766;51.534;6.722;2023-05-10T00:11:42;12.90;;;9.37;;
15331;SDS011;7766;51.534;6.722;2023-05-10T00:12:43;12.03;;;9.73;;
15331;SDS011;7766;51.534;6.722;2023-05-10T00:13:53;10.07;;;8.23;;
15331;SDS011;7766;51.534;6.722;2023-05-10T00:15:05;13.73;;;9.43;;
15331;SDS011;7766;51.534;6.722;2023-05-10T00:16:07;12.77;;;9.63;;
15331;SDS011;7766;51.534;6.722;2023-05-10T00:17:12;13.70;;;10.37;;
15331;SDS011;7766;51.534;6.722;2023-05-10T00:18:28;15.57;;;9.87;;
15331;SDS011;7766;51.534;6.722;2023-05-10T00:19:30;13.50;;;9.90;;
15331;SDS011;7766;51.534;6.722;2023-05-10T00:20:31;11.93;;;9.47;;
15331;SDS011;7766;51.534;6.722;2023-05-10T00:21:36;13.50;;;10.00;;
15331;SDS011;7766;51.534;6.722;2023-05-10T00:22:39;12.70;;;9.67;;
15331;SDS011;7766;51.534;6.722;2023-05-10T00:23:41;15.37;;;10.47;;
15331;SDS011;7766;51.534;6.722;2023-05-10T00:24:42;13.07;;;10.07;;
15331;SDS011;7766;51.534;6.722;2023-05-10T00:25:45;14.07;;;10.43;;
15331;SDS011;7766;51.534;6.722;2023-05-10T00:26:46;13.73;;;10.70;;
15331;SDS011;7766;51.534;6.722;2023-05-10T00:27:48;13.97;;;10.70;;
15331;SDS011;7766;51.534;6.722;2023-05-10T00:28:57;15.27;;;10.40;;
15331;SDS011;7766;51.534;6.722;2023-05-10T00:29:58;12.07;;;9.87;;
15331;SDS011;7766;51.534;6.722;2023-05-10T00:30:59;13.83;;;9.90;;
15331;SDS011;7766;51.534;6.722;2023-05-10T00:32:00;14.83;;;11.37;;
15331;SDS011;7766;51.534;6.722;2023-05-10T00:33:01;13.67;;;10.83;;
15331;SDS011;7766;51.534;6.722;2023-05-10T00:34:03;14.00;;;9.93;;
15331;SDS011;7766;51.534;6.722;2023-05-10T00:35:04;15.60;;;10.80;;
15331;SDS011;7766;51.534;6.722;2023-05-10T00:36:05;14.43;;;10.80;;
15331;SDS011;7766;51.534;6.722;2023-05-10T00:37:07;12.63;;;10.23;;
15331;SDS011;7766;51.534;6.722;2023-05-10T00:38:08;16.77;;;11.03;;
15331;SDS011;7766;51.534;6.722;2023-05-10T00:39:09;14.37;;;10.47;;
15331;SDS011;7766;51.534;6.722;2023-05-10T00:40:11;14.73;;;10.90;;
15331;SDS011;7766;51.534;6.722;2023-05-10T00:41:12;15.50;;;10.47;;
15331;SDS011;7766;51.534;6.722;2023-05-10T00:42:13;15.60;;;11.50;;
15331;SDS011;7766;51.534;6.722;2023-05-10T00:43:14;16.90;;;11.47;;
15331;SDS011;7766;51.534;6.722;2023-05-10T00:44:15;18.30;;;11.43;;
15331;SDS011;7766;51.534;6.722;2023-05-10T00:45:18;15.63;;;11.60;;
15331;SDS011;7766;51.534;6.722;2023-05-10T00:46:19;16.67;;;11.70;;
15331;SDS011;7766;51.534;6.722;2023-05-10T00:47:22;14.07;;;11.03;;
15331;SDS011;7766;51.534;6.722;2023-05-10T00:48:23;14.93;;;11.17;;
15331;SDS011;7766;51.534;6.722;2023-05-10T00:49:24;15.63;;;11.93;;
15331;SDS011;7766;51.534;6.722;2023-05-10T00:50:25;15.63;;;11.50;;
15331;SDS011;7766;51.534;6.722;2023-05-10T00:51:26;16.83;;;12.23;;
15331;SDS011;7766;51.534;6.722;2023-05-10T00:52:28;17.70;;;12.47;;
15331;SDS011;7766;51.534;6.722;2023-05-10T00:53:31;17.63;;;12.23;;
15331;SDS011;7766;51.534;6.722;2023-05-10T00:54:32;18.33;;;12.33;;
15331;SDS011;7766;51.534;6.722;2023-05-10T00:55:34;17.23;;;12.30;;
15331;SDS011;7766;51.534;6.722;2023-05-10T00:56:35;18.43;;;12.77;;
15331;SDS011;7766;51.534;6.722;2023-05-10T00:57:37;18.33;;;11.90;;
15331;SDS011;7766;51.534;6.722;2023-05-10T00:58:39;18.97;;;13.33;;
15331;SDS011;7766;51.534;6.722;2023-05-10T00:59:40;18.50;;;12.57;;
15331;SDS011;7766;51.534;6.722;2023-05-10T01:00:42;17.80;;;13.13;;
15331;SDS011;7766;51.534;6.722;2023-05-10T01:01:46;16.87;;;12.50;;
15331;SDS011;7766;51.534;6.722;2023-05-10T01:02:47;17.40;;;11.90;;
15331;SDS011;7766;51.534;6.722;2023-05-10T01:03:49;15.73;;;12.33;;
15331;SDS011;7766;51.534;6.722;2023-05-10T01:04:50;17.37;;;12.47;;
15331;SDS011;7766;51.534;6.722;2023-05-10T01:05:52;17.70;;;13.00;;
15331;SDS011;7766;51.534;6.722;2023-05-10T01:06:53;17.03;;;12.07;;
15331;SDS011;7766;51.534;6.722;2023-05-10T01:07:54;19.73;;;13.17;;
15331;SDS011;7766;51.534;6.722;2023-05-10T01:08:56;16.33;;;12.47;;
15331;SDS011;7766;51.534;6.722;2023-05-10T01:09:57;15.97;;;11.93;;
15331;SDS011;7766;51.534;6.722;2023-05-10T01:10:58;19.83;;;13.57;;
15331;SDS011;7766;51.534;6.722;2023-05-10T01:11:59;16.50;;;12.30;;
15331;SDS011;7766;51.534;6.722;2023-05-10T01:13:01;17.77;;;12.40;;
15331;SDS011;7766;51.534;6.722;2023-05-10T01:14:03;17.77;;;12.90;;
15331;SDS011;7766;51.534;6.722;2023-05-10T01:15:05;15.40;;;12.07;;
15331;SDS011;7766;51.534;6.722;2023-05-10T01:16:07;18.60;;;12.83;;
15331;SDS011;7766;51.534;6.722;2023-05-10T01:17:09;16.97;;;12.43;;
15331;SDS011;7766;51.534;6.722;2023-05-10T01:18:12;16.60;;;11.37;;
15331;SDS011;7766;51.534;6.722;2023-05-10T01:19:22;19.57;;;12.27;;
15331;SDS011;7766;51.534;6.722;2023-05-10T01:20:29;15.87;;;11.83;;
15331;SDS011;7766;51.534;6.722;2023-05-10T01:31:40;16.07;;;11.37;;
15331;SDS011;7766;51.534;6.722;2023-05-10T01:33:11;14.73;;;11.37;;
15331;SDS011;7766;51.534;6.722;2023-05-10T01:34:27;15.37;;;10.40;;
15331;SDS011;7766;51.534;6.722;2023-05-10T01:35:54;14.27;;;10.83;;
15331;SDS011;7766;51.534;6.722;2023-05-10T01:37:13;15.57;;;11.13;;
15331;SDS011;7766;51.534;6.722;2023-05-10T01:38:32;15.70;;;11.60;;
15331;SDS011;7766;51.534;6.722;2023-05-10T01:40:01;16.30;;;10.53;;
15331;SDS011;7766;51.534;6.722;2023-05-10T01:42:20;14.80;;;10.80;;
15331;SDS011;7766;51.534;6.722;2023-05-10T01:43:29;13.97;;;10.03;;
15331;SDS011;7766;51.534;6.722;2023-05-10T01:47:11;14.07;;;10.10;;
15331;SDS011;7766;51.534;6.722;2023-05-10T01:48:14;14.77;;;10.80;;
15331;SDS011;7766;51.534;6.722;2023-05-10T01:49:25;14.20;;;10.77;;
15331;SDS011;7766;51.534;6.722;2023-05-10T01:50:30;15.67;;;11.53;;
15331;SDS011;7766;51.534;6.722;2023-05-10T01:51:39;19.33;;;11.90;;
15331;SDS011;7766;51.534;6.722;2023-05-10T01:52:47;16.00;;;10.57;;
15331;SDS011;7766;51.534;6.722;2023-05-10T01:54:01;15.20;;;11.43;;
15331;SDS011;7766;51.534;6.722;2023-05-10T01:55:07;16.00;;;11.80;;
15331;SDS011;7766;51.534;6.722;2023-05-10T01:56:11;17.33;;;12.40;;
15331;SDS011;7766;51.534;6.722;2023-05-10T01:57:14;18.80;;;11.60;;
15331;SDS011;7766;51.534;6.722;2023-05-10T01:58:21;15.73;;;11.70;;
15331;SDS011;7766;51.534;6.722;2023-05-10T01:59:28;16.40;;;11.00;;
15331;SDS011;7766;51.534;6.722;2023-05-10T02:00:36;17.50;;;11.97;;
15331;SDS011;7766;51.534;6.722;2023-05-10T02:01:39;16.30;;;12.17;;
15331;SDS011;7766;51.534;6.722;2023-05-10T02:02:42;17.40;;;11.40;;
15331;SDS011;7766;51.534;6.722;2023-05-10T02:03:46;16.63;;;11.83;;
15331;SDS011;7766;51.534;6.722;2023-05-10T02:04:49;15.67;;;11.70;;
15331;SDS011;7766;51.534;6.722;2023-05-10T02:05:53;20.67;;;11.07;;
15331;SDS011;7766;51.534;6.722;2023-05-10T02:06:55;18.50;;;11.67;;
15331;SDS011;7766;51.534;6.722;2023-05-10T02:07:57;15.67;;;11.43;;
15331;SDS011;7766;51.534;6.722;2023-05-10T02:09:01;15.07;;;11.07;;
15331;SDS011;7766;51.534;6.722;2023-05-10T02:10:06;16.90;;;12.20;;
15331;SDS011;7766;51.534;6.722;2023-05-10T02:11:08;15.47;;;11.67;;
15331;SDS011;7766;51.534;6.722;2023-05-10T02:12:11;21.07;;;11.90;;
15331;SDS011;7766;51.534;6.722;2023-05-10T02:13:14;16.43;;;12.60;;
15331;SDS011;7766;51.534;6.722;2023-05-10T02:14:18;17.10;;;12.43;;
15331;SDS011;7766;51.534;6.722;2023-05-10T02:15:21;18.70;;;12.57;;
15331;SDS011;7766;51.534;6.722;2023-05-10T02:16:24;16.73;;;12.00;;
15331;SDS011;7766;51.534;6.722;2023-05-10T02:17:26;16.50;;;11.77;;
15331;SDS011;7766;51.534;6.722;2023-05-10T02:18:29;17.80;;;12.70;;
15331;SDS011;7766;51.534;6.722;2023-05-10T02:19:32;15.93;;;11.83;;
15331;SDS011;7766;51.534;6.722;2023-05-10T02:20:34;17.20;;;11.97;;
15331;SDS011;7766;51.534;6.722;2023-05-10T02:21:36;16.30;;;11.93;;
15331;SDS011;7766;51.534;6.722;2023-05-10T02:22:39;16.73;;;11.90;;
15331;SDS011;7766;51.534;6.722;2023-05-10T02:23:42;18.47;;;12.80;;
15331;SDS011;7766;51.534;6.722;2023-05-10T02:24:44;18.33;;;11.43;;
15331;SDS011;7766;51.534;6.722;2023-05-10T02:25:46;16.60;;;12.13;;
15331;SDS011;7766;51.534;6.722;2023-05-10T02:26:49;16.73;;;12.63;;
15331;SDS011;7766;51.534;6.722;2023-05-10T02:27:54;18.00;;;12.27;;
15331;SDS011;7766;51.534;6.722;2023-05-10T02:28:57;15.53;;;11.67;;
15331;SDS011;7766;51.534;6.722;2023-05-10T02:29:58;17.17;;;12.20;;
15331;SDS011;7766;51.534;6.722;2023-05-10T02:31:00;17.17;;;12.00;;
15331;SDS011;7766;51.534;6.722;2023-05-10T02:32:02;16.83;;;12.47;;
15331;SDS011;7766;51.534;6.722;2023-05-10T02:33:04;20.27;;;12.30;;
15331;SDS011;7766;51.534;6.722;2023-05-10T02:34:06;18.97;;;12.20;;
15331;SDS011;7766;51.534;6.722;2023-05-10T02:35:08;16.73;;;12.07;;
15331;SDS011;7766;51.534;6.722;2023-05-10T02:36:10;18.00;;;12.50;;
15331;SDS011;7766;51.534;6.722;2023-05-10T02:37:14;17.60;;;12.30;;
15331;SDS011;7766;51.534;6.722;2023-05-10T02:38:19;17.13;;;13.20;;
15331;SDS011;7766;51.534;6.722;2023-05-10T02:39:22;16.60;;;12.63;;
15331;SDS011;7766;51.534;6.722;2023-05-10T02:40:24;19.17;;;12.00;;
15331;SDS011;7766;51.534;6.722;2023-05-10T02:41:27;18.10;;;12.47;;
15331;SDS011;7766;51.534;6.722;2023-05-10T02:42:31;17.50;;;12.67;;
15331;SDS011;7766;51.534;6.722;2023-05-10T02:43:35;19.90;;;12.47;;
15331;SDS011;7766;51.534;6.722;2023-05-10T02:44:40;16.17;;;11.80;;
15331;SDS011;7766;51.534;6.722;2023-05-10T02:45:43;17.07;;;12.73;;
15331;SDS011;7766;51.534;6.722;2023-05-10T02:46:47;17.20;;;13.33;;
15331;SDS011;7766;51.534;6.722;2023-05-10T02:47:48;17.23;;;12.33;;
15331;SDS011;7766;51.534;6.722;2023-05-10T02:48:49;17.93;;;12.50;;
15331;SDS011;7766;51.534;6.722;2023-05-10T02:49:50;19.37;;;12.80;;
15331;SDS011;7766;51.534;6.722;2023-05-10T02:50:52;16.90;;;12.87;;
15331;SDS011;7766;51.534;6.722;2023-05-10T02:51:56;17.37;;;12.53;;
15331;SDS011;7766;51.534;6.722;2023-05-10T02:53:13;16.00;;;12.13;;
15331;SDS011;7766;51.534;6.722;2023-05-10T02:54:19;18.67;;;13.47;;
15331;SDS011;7766;51.534;6.722;2023-05-10T02:55:25;17.23;;;12.43;;
15331;SDS011;7766;51.534;6.722;2023-05-10T02:56:33;17.73;;;12.93;;
15331;SDS011;7766;51.534;6.722;2023-05-10T02:57:36;17.97;;;12.87;;
15331;SDS011;7766;51.534;6.722;2023-05-10T02:58:42;19.07;;;13.03;;
15331;SDS011;7766;51.534;6.722;2023-05-10T02:59:43;16.67;;;12.07;;
15331;SDS011;7766;51.534;6.722;2023-05-10T03:00:45;16.93;;;12.50;;
15331;SDS011;7766;51.534;6.722;2023-05-10T03:01:46;18.63;;;12.77;;
15331;SDS011;7766;51.534;6.722;2023-05-10T03:02:47;16.13;;;12.13;;
15331;SDS011;7766;51.534;6.722;2023-05-10T03:03:48;17.40;;;12.70;;
15331;SDS011;7766;51.534;6.722;2023-05-10T03:04:49;17.67;;;12.63;;
15331;SDS011;7766;51.534;6.722;2023-05-10T03:05:50;17.00;;;12.20;;
15331;SDS011;7766;51.534;6.722;2023-05-10T03:06:55;17.57;;;12.40;;
15331;SDS011;7766;51.534;6.722;2023-05-10T03:07:56;18.47;;;14.03;;
15331;SDS011;7766;51.534;6.722;2023-05-10T03:08:57;22.07;;;13.47;;
15331;SDS011;7766;51.534;6.722;2023-05-10T03:09:59;16.33;;;13.00;;
15331;SDS011;7766;51.534;6.722;2023-05-10T03:13:31;20.17;;;13.63;;
15331;SDS011;7766;51.534;6.722;2023-05-10T03:16:15;19.17;;;13.20;;
15331;SDS011;7766;51.534;6.722;2023-05-10T03:17:33;18.97;;;12.57;;
15331;SDS011;7766;51.534;6.722;2023-05-10T03:18:44;19.67;;;13.67;;
15331;SDS011;7766;51.534;6.722;2023-05-10T03:20:03;19.33;;;12.93;;
15331;SDS011;7766;51.534;6.722;2023-05-10T03:21:10;20.13;;;13.43;;
15331;SDS011;7766;51.534;6.722;2023-05-10T03:22:12;19.43;;;13.27;;
15331;SDS011;7766;51.534;6.722;2023-05-10T03:23:25;21.20;;;13.83;;
15331;SDS011;7766;51.534;6.722;2023-05-10T03:24:30;17.60;;;12.97;;
15331;SDS011;7766;51.534;6.722;2023-05-10T03:25:32;21.90;;;13.90;;
15331;SDS011;7766;51.534;6.722;2023-05-10T03:26:34;20.57;;;13.90;;
15331;SDS011;7766;51.534;6.722;2023-05-10T03:27:37;20.00;;;13.20;;
15331;SDS011;7766;51.534;6.722;2023-05-10T03:28:40;20.87;;;14.67;;
15331;SDS011;7766;51.534;6.722;2023-05-10T03:29:43;18.63;;;12.20;;
15331;SDS011;7766;51.534;6.722;2023-05-10T03:30:46;19.33;;;13.57;;
15331;SDS011;7766;51.534;6.722;2023-05-10T03:31:49;20.00;;;13.70;;
15331;SDS011;7766;51.534;6.722;2023-05-10T03:32:50;23.03;;;14.57;;
15331;SDS011;7766;51.534;6.722;2023-05-10T03:33:52;18.87;;;13.37;;
15331;SDS011;7766;51.534;6.722;2023-05-10T03:34:53;20.63;;;13.90;;
15331;SDS011;7766;51.534;6.722;2023-05-10T03:35:54;19.70;;;13.97;;
15331;SDS011;7766;51.534;6.722;2023-05-10T03:36:55;22.17;;;14.53;;
15331;SDS011;7766;51.534;6.722;2023-05-10T03:37:57;21.07;;;14.63;;
15331;SDS011;7766;51.534;6.722;2023-05-10T03:38:58;23.93;;;14.47;;
15331;SDS011;7766;51.534;6.722;2023-05-10T03:39:59;17.97;;;12.90;;
15331;SDS011;7766;51.534;6.722;2023-05-10T03:41:00;18.80;;;13.00;;
15331;SDS011;7766;51.534;6.722;2023-05-10T03:42:01;22.30;;;14.43;;
15331;SDS011;7766;51.534;6.722;2023-05-10T03:43:02;22.70;;;14.77;;
15331;SDS011;7766;51.534;6.722;2023-05-10T03:44:03;18.33;;;12.97;;
15331;SDS011;7766;51.534;6.722;2023-05-10T03:45:05;21.57;;;14.20;;
15331;SDS011;7766;51.534;6.722;2023-05-10T03:46:07;20.70;;;14.20;;
15331;SDS011;7766;51.534;6.722;2023-05-10T03:47:08;22.47;;;14.53;;
15331;SDS011;7766;51.534;6.722;2023-05-10T03:48:09;17.60;;;13.43;;
15331;SDS011;7766;51.534;6.722;2023-05-10T03:49:10;20.10;;;14.57;;
15331;SDS011;7766;51.534;6.722;2023-05-10T03:50:11;22.33;;;14.63;;
15331;SDS011;7766;51.534;6.722;2023-05-10T03:51:13;22.80;;;14.77;;
15331;SDS011;7766;51.534;6.722;2023-05-10T03:52:14;20.00;;;14.20;;
15331;SDS011;7766;51.534;6.722;2023-05-10T03:53:15;19.73;;;13.63;;
15331;SDS011;7766;51.534;6.722;2023-05-10T03:54:16;21.23;;;13.83;;
15331;SDS011;7766;51.534;6.722;2023-05-10T03:55:17;22.83;;;14.63;;
15331;SDS011;7766;51.534;6.722;2023-05-10T03:56:18;24.03;;;14.27;;
15331;SDS011;7766;51.534;6.722;2023-05-10T03:57:20;20.03;;;14.33;;
15331;SDS011;7766;51.534;6.722;2023-05-10T03:58:21;19.20;;;13.83;;
15331;SDS011;7766;51.534;6.722;2023-05-10T03:59:22;22.33;;;14.57;;
15331;SDS011;7766;51.534;6.722;2023-05-10T04:00:23;22.33;;;15.50;;
15331;SDS011;7766;51.534;6.722;2023-05-10T04:01:25;20.80;;;14.60;;
15331;SDS011;7766;51.534;6.722;2023-05-10T04:02:26;23.60;;;14.97;;
15331;SDS011;7766;51.534;6.722;2023-05-10T04:03:27;20.37;;;13.63;;
15331;SDS011;7766;51.534;6.722;2023-05-10T04:04:28;22.40;;;15.93;;
15331;SDS011;7766;51.534;6.722;2023-05-10T04:05:29;23.73;;;15.47;;
15331;SDS011;7766;51.534;6.722;2023-05-10T04:06:30;22.60;;;15.53;;
15331;SDS011;7766;51.534;6.722;2023-05-10T04:07:31;22.03;;;15.10;;
15331;SDS011;7766;51.534;6.722;2023-05-10T04:08:32;26.57;;;15.43;;
15331;SDS011;7766;51.534;6.722;2023-05-10T04:09:34;21.30;;;14.73;;
15331;SDS011;7766;51.534;6.722;2023-05-10T04:10:35;24.47;;;16.03;;
15331;SDS011;7766;51.534;6.722;2023-05-10T04:11:36;24.43;;;14.67;;
15331;SDS011;7766;51.534;6.722;2023-05-10T04:12:37;23.57;;;14.73;;
15331;SDS011;7766;51.534;6.722;2023-05-10T04:13:38;27.07;;;16.03;;
15331;SDS011;7766;51.534;6.722;2023-05-10T04:14:39;23.57;;;15.83;;
15331;SDS011;7766;51.534;6.722;2023-05-10T04:15:40;23.07;;;15.53;;
15331;SDS011;7766;51.534;6.722;2023-05-10T04:16:41;22.23;;;15.47;;
15331;SDS011;7766;51.534;6.722;2023-05-10T04:17:42;20.47;;;15.13;;
15331;SDS011;7766;51.534;6.722;2023-05-10T04:18:43;24.17;;;15.00;;
15331;SDS011;7766;51.534;6.722;2023-05-10T04:19:45;23.87;;;15.63;;
15331;SDS011;7766;51.534;6.722;2023-05-10T04:20:46;25.00;;;16.20;;
15331;SDS011;7766;51.534;6.722;2023-05-10T04:21:47;24.10;;;16.10;;
15331;SDS011;7766;51.534;6.722;2023-05-10T04:22:48;26.27;;;16.93;;
15331;SDS011;7766;51.534;6.722;2023-05-10T04:23:49;24.13;;;15.97;;
15331;SDS011;7766;51.534;6.722;2023-05-10T04:24:50;24.63;;;16.00;;
15331;SDS011;7766;51.534;6.722;2023-05-10T04:25:51;23.90;;;16.60;;
15331;SDS011;7766;51.534;6.722;2023-05-10T04:26:53;23.43;;;16.27;;
15331;SDS011;7766;51.534;6.722;2023-05-10T04:27:54;25.30;;;17.03;;
15331;SDS011;7766;51.534;6.722;2023-05-10T04:28:55;23.47;;;16.93;;
15331;SDS011;7766;51.534;6.722;2023-05-10T04:29:57;30.30;;;17.87;;
15331;SDS011;7766;51.534;6.722;2023-05-10T04:31:01;22.83;;;16.13;;
15331;SDS011;7766;51.534;6.722;2023-05-10T04:32:03;28.90;;;16.77;;
15331;SDS011;7766;51.534;6.722;2023-05-10T04:33:05;26.57;;;17.23;;
15331;SDS011;7766;51.534;6.722;2023-05-10T04:34:06;26.07;;;18.00;;
15331;SDS011;7766;51.534;6.722;2023-05-10T04:35:07;26.13;;;17.43;;
15331;SDS011;7766;51.534;6.722;2023-05-10T04:36:10;25.37;;;16.40;;
15331;SDS011;7766;51.534;6.722;2023-05-10T04:37:11;27.67;;;18.27;;
15331;SDS011;7766;51.534;6.722;2023-05-10T04:38:12;27.10;;;18.97;;
15331;SDS011;7766;51.534;6.722;2023-05-10T04:39:13;30.63;;;19.40;;
15331;SDS011;7766;51.534;6.722;2023-05-10T04:40:14;27.63;;;18.70;;
15331;SDS011;7766;51.534;6.722;2023-05-10T04:41:15;26.80;;;18.17;;
15331;SDS011;7766;51.534;6.722;2023-05-10T04:42:16;30.90;;;20.07;;
15331;SDS011;7766;51.534;6.722;2023-05-10T04:43:17;30.20;;;18.87;;
15331;SDS011;7766;51.534;6.722;2023-05-10T04:44:18;27.93;;;18.13;;
15331;SDS011;7766;51.534;6.722;2023-05-10T04:45:19;27.53;;;18.23;;
15331;SDS011;7766;51.534;6.722;2023-05-10T04:46:20;30.20;;;19.00;;
15331;SDS011;7766;51.534;6.722;2023-05-10T04:47:21;27.90;;;18.37;;
15331;SDS011;7766;51.534;6.722;2023-05-10T04:48:22;26.80;;;19.13;;
15331;SDS011;7766;51.534;6.722;2023-05-10T04:49:24;33.87;;;19.90;;
15331;SDS011;7766;51.534;6.722;2023-05-10T04:50:25;33.63;;;19.97;;
15331;SDS011;7766;51.534;6.722;2023-05-10T04:51:26;28.43;;;18.63;;
15331;SDS011;7766;51.534;6.722;2023-05-10T04:52:27;31.10;;;21.23;;
15331;SDS011;7766;51.534;6.722;2023-05-10T04:53:28;30.20;;;20.47;;
15331;SDS011;7766;51.534;6.722;2023-05-10T04:54:29;33.53;;;21.20;;
15331;SDS011;7766;51.534;6.722;2023-05-10T04:55:30;30.57;;;20.00;;
15331;SDS011;7766;51.534;6.722;2023-05-10T04:56:31;30.13;;;20.93;;
15331;SDS011;7766;51.534;6.722;2023-05-10T04:57:33;33.13;;;20.57;;
15331;SDS011;7766;51.534;6.722;2023-05-10T04:58:34;32.10;;;20.03;;
15331;SDS011;7766;51.534;6.722;2023-05-10T04:59:35;32.63;;;19.77;;
15331;SDS011;7766;51.534;6.722;2023-05-10T05:00:37;31.80;;;19.93;;
15331;SDS011;7766;51.534;6.722;2023-05-10T05:01:39;31.83;;;20.57;;
15331;SDS011;7766;51.534;6.722;2023-05-10T05:02:43;29.50;;;19.47;;
15331;SDS011;7766;51.534;6.722;2023-05-10T05:03:47;34.20;;;20.93;;
15331;SDS011;7766;51.534;6.722;2023-05-10T05:04:48;30.87;;;20.03;;
15331;SDS011;7766;51.534;6.722;2023-05-10T05:05:49;30.23;;;19.90;;
15331;SDS011;7766;51.534;6.722;2023-05-10T05:06:50;29.67;;;20.50;;
15331;SDS011;7766;51.534;6.722;2023-05-10T05:07:51;30.70;;;20.23;;
15331;SDS011;7766;51.534;6.722;2023-05-10T05:08:52;33.37;;;22.20;;
15331;SDS011;7766;51.534;6.722;2023-05-10T05:09:54;32.90;;;21.97;;
15331;SDS011;7766;51.534;6.722;2023-05-10T05:10:55;29.77;;;19.37;;
15331;SDS011;7766;51.534;6.722;2023-05-10T05:11:56;29.40;;;19.90;;
15331;SDS011;7766;51.534;6.722;2023-05-10T05:12:57;33.63;;;22.37;;
15331;SDS011;7766;51.534;6.722;2023-05-10T05:13:58;32.77;;;22.03;;
15331;SDS011;7766;51.534;6.722;2023-05-10T05:14:59;31.60;;;21.33;;
15331;SDS011;7766;51.534;6.722;2023-05-10T05:16:02;33.73;;;21.50;;
15331;SDS011;7766;51.534;6.722;2023-05-10T05:17:03;31.33;;;21.03;;
15331;SDS011;7766;51.534;6.722;2023-05-10T05:18:04;31.03;;;20.73;;
15331;SDS011;7766;51.534;6.722;2023-05-10T05:19:05;33.33;;;22.33;;
15331;SDS011;7766;51.534;6.722;2023-05-10T05:20:07;32.40;;;21.67;;
15331;SDS011;7766;51.534;6.722;2023-05-10T05:21:15;30.50;;;21.43;;
15331;SDS011;7766;51.534;6.722;2023-05-10T05:22:17;34.23;;;22.63;;
15331;SDS011;7766;51.534;6.722;2023-05-10T05:23:19;33.67;;;22.53;;
15331;SDS011;7766;51.534;6.722;2023-05-10T05:24:20;30.67;;;21.80;;
15331;SDS011;7766;51.534;6.722;2023-05-10T05:25:21;32.73;;;21.47;;
15331;SDS011;7766;51.534;6.722;2023-05-10T05:26:22;33.33;;;23.00;;
15331;SDS011;7766;51.534;6.722;2023-05-10T05:27:24;34.80;;;22.30;;
15331;SDS011;7766;51.534;6.722;2023-05-10T05:28:27;33.07;;;22.23;;
15331;SDS011;7766;51.534;6.722;2023-05-10T05:29:32;37.20;;;23.27;;
15331;SDS011;7766;51.534;6.722;2023-05-10T05:30:33;33.03;;;23.27;;
15331;SDS011;7766;51.534;6.722;2023-05-10T05:31:34;34.73;;;22.67;;
15331;SDS011;7766;51.534;6.722;2023-05-10T05:32:35;35.57;;;24.10;;
15331;SDS011;7766;51.534;6.722;2023-05-10T05:33:37;33.93;;;22.83;;
15331;SDS011;7766;51.534;6.722;2023-05-10T05:34:38;32.93;;;22.60;;
15331;SDS011;7766;51.534;6.722;2023-05-10T05:35:39;35.40;;;22.93;;
15331;SDS011;7766;51.534;6.722;2023-05-10T05:36:40;34.90;;;23.13;;
15331;SDS011;7766;51.534;6.722;2023-05-10T05:37:41;36.73;;;23.37;;
15331;SDS011;7766;51.534;6.722;2023-05-10T05:38:42;37.60;;;24.43;;
15331;SDS011;7766;51.534;6.722;2023-05-10T05:39:43;34.73;;;23.77;;
15331;SDS011;7766;51.534;6.722;2023-05-10T05:40:44;39.63;;;23.97;;
15331;SDS011;7766;51.534;6.722;2023-05-10T05:41:46;36.57;;;23.70;;
15331;SDS011;7766;51.534;6.722;2023-05-10T05:42:47;35.27;;;23.27;;
15331;SDS011;7766;51.534;6.722;2023-05-10T05:43:48;37.03;;;24.07;;
15331;SDS011;7766;51.534;6.722;2023-05-10T05:44:49;37.20;;;23.63;;
15331;SDS011;7766;51.534;6.722;2023-05-10T05:45:51;36.50;;;23.97;;
15331;SDS011;7766;51.534;6.722;2023-05-10T05:46:53;35.33;;;23.63;;
15331;SDS011;7766;51.534;6.722;2023-05-10T05:47:54;34.27;;;22.37;;
15331;SDS011;7766;51.534;6.722;2023-05-10T05:48:56;37.33;;;24.43;;
15331;SDS011;7766;51.534;6.722;2023-05-10T05:49:57;35.03;;;23.57;;
15331;SDS011;7766;51.534;6.722;2023-05-10T05:50:58;38.03;;;23.27;;
15331;SDS011;7766;51.534;6.722;2023-05-10T05:52:00;36.60;;;23.50;;
15331;SDS011;7766;51.534;6.722;2023-05-10T05:53:06;33.37;;;22.97;;
15331;SDS011;7766;51.534;6.722;2023-05-10T05:54:11;33.50;;;22.83;;
15331;SDS011;7766;51.534;6.722;2023-05-10T05:55:22;33.73;;;22.87;;
15331;SDS011;7766;51.534;6.722;2023-05-10T05:56:24;33.03;;;21.57;;
15331;SDS011;7766;51.534;6.722;2023-05-10T05:57:25;36.10;;;21.70;;
15331;SDS011;7766;51.534;6.722;2023-05-10T05:58:26;31.07;;;20.83;;
15331;SDS011;7766;51.534;6.722;2023-05-10T05:59:27;37.17;;;24.03;;
15331;SDS011;7766;51.534;6.722;2023-05-10T06:00:29;32.77;;;22.20;;
15331;SDS011;7766;51.534;6.722;2023-05-10T06:01:30;32.00;;;21.80;;
15331;SDS011;7766;51.534;6.722;2023-05-10T06:02:31;35.10;;;21.83;;
15331;SDS011;7766;51.534;6.722;2023-05-10T06:03:32;35.77;;;22.93;;
15331;SDS011;7766;51.534;6.722;2023-05-10T06:04:33;35.90;;;23.67;;
15331;SDS011;7766;51.534;6.722;2023-05-10T06:05:36;36.13;;;23.83;;
15331;SDS011;7766;51.534;6.722;2023-05-10T06:06:39;35.60;;;22.83;;
15331;SDS011;7766;51.534;6.722;2023-05-10T06:07:40;34.13;;;22.57;;
15331;SDS011;7766;51.534;6.722;2023-05-10T06:08:42;36.23;;;23.57;;
15331;SDS011;7766;51.534;6.722;2023-05-10T06:09:43;40.63;;;24.80;;
15331;SDS011;7766;51.534;6.722;2023-05-10T06:10:44;37.47;;;23.93;;
15331;SDS011;7766;51.534;6.722;2023-05-10T06:11:45;36.20;;;23.93;;
15331;SDS011;7766;51.534;6.722;2023-05-10T06:12:46;37.57;;;24.13;;
15331;SDS011;7766;51.534;6.722;2023-05-10T06:13:47;36.17;;;24.40;;
15331;SDS011;7766;51.534;6.722;2023-05-10T06:14:48;34.43;;;23.37;;
15331;SDS011;7766;51.534;6.722;2023-05-10T06:15:49;42.27;;;24.73;;
15331;SDS011;7766;51.534;6.722;2023-05-10T06:16:50;34.30;;;24.43;;
15331;SDS011;7766;51.534;6.722;2023-05-10T06:17:51;40.63;;;24.77;;
15331;SDS011;7766;51.534;6.722;2023-05-10T06:18:53;37.03;;;23.60;;
15331;SDS011;7766;51.534;6.722;2023-05-10T06:19:54;37.33;;;24.37;;
15331;SDS011;7766;51.534;6.722;2023-05-10T06:20:55;35.07;;;23.50;;
15331;SDS011;7766;51.534;6.722;2023-05-10T06:21:57;33.53;;;21.83;;
15331;SDS011;7766;51.534;6.722;2023-05-10T06:22:58;35.93;;;23.00;;
15331;SDS011;7766;51.534;6.722;2023-05-10T06:23:59;32.53;;;24.13;;
15331;SDS011;7766;51.534;6.722;2023-05-10T06:25:00;33.73;;;23.33;;
15331;SDS011;7766;51.534;6.722;2023-05-10T06:26:01;39.53;;;25.30;;
15331;SDS011;7766;51.534;6.722;2023-05-10T06:27:03;36.37;;;23.57;;
15331;SDS011;7766;51.534;6.722;2023-05-10T06:28:04;36.87;;;24.50;;
15331;SDS011;7766;51.534;6.722;2023-05-10T06:29:05;38.00;;;24.73;;
15331;SDS011;7766;51.534;6.722;2023-05-10T06:30:06;35.87;;;24.93;;
15331;SDS011;7766;51.534;6.722;2023-05-10T06:31:08;33.30;;;22.93;;